Time;durP1;ratioP1;P1;durP2;ratioP2;P2;SDS_P1;SDS_P2;PMS_P1;PMS_P2;Temp;Humidity;BMP_temperature;BMP_pressure;BME280_temperature;BME280_humidity;BME280_pressure;Samples;Min_cycle;Max_cycle;Signal;HPM_P1;HPM_P2
2022/09/03 00:01:57;;;;;;;0.10;0.10;;;20.10;91.40;;;;;;5002205;28;20055;-70
2022/09/03 00:05:06;;;;;;;0.00;0.00;;;20.10;91.10;;;;;;5003058;28;20116;-70
2022/09/03 00:07:53;;;;;;;0.00;0.00;;;20.00;91.20;;;;;;5011810;28;20054;-70
2022/09/03 00:10:25;;;;;;;0.00;0.00;;;20.00;91.10;;;;;;5008647;28;20042;-71
2022/09/03 00:12:55;;;;;;;0.00;0.00;;;20.00;91.30;;;;;;4993388;28;20451;-71
2022/09/03 00:15:22;;;;;;;0.00;0.00;;;19.90;91.10;;;;;;5002832;28;20412;-71
2022/09/03 00:18:03;;;;;;;0.00;0.00;;;19.90;91.30;;;;;;5010179;28;20498;-70
2022/09/03 00:20:45;;;;;;;0.00;0.00;;;19.90;91.50;;;;;;5007191;28;20081;-70
2022/09/03 00:23:18;;;;;;;0.10;0.10;;;19.90;91.70;;;;;;4997753;28;20414;-71
2022/09/03 00:25:54;;;;;;;5.78;1.77;;;19.80;91.40;;;;;;5009900;28;20049;-71
2022/09/03 00:28:28;;;;;;;0.00;0.00;;;19.90;91.20;;;;;;5009898;28;20112;-70
2022/09/03 00:31:10;;;;;;;0.00;0.00;;;19.80;91.10;;;;;;4995921;28;20086;-71
2022/09/03 00:33:38;;;;;;;0.43;0.43;;;19.80;91.60;;;;;;4992871;28;20478;-71
2022/09/03 00:36:13;;;;;;;0.00;0.00;;;19.70;91.30;;;;;;4999306;28;20054;-70
2022/09/03 00:38:39;;;;;;;0.00;0.00;;;19.70;92.00;;;;;;5009364;28;20092;-71
2022/09/03 00:41:20;;;;;;;0.00;0.00;;;19.80;91.40;;;;;;5005483;28;20041;-71
2022/09/03 00:43:56;;;;;;;0.00;0.00;;;19.70;91.30;;;;;;4991248;28;20108;-71
2022/09/03 00:46:56;;;;;;;0.10;0.10;;;19.60;91.30;;;;;;4990464;28;20054;-71
2022/09/03 00:49:39;;;;;;;0.20;0.10;;;19.60;91.40;;;;;;5003585;28;20046;-70
2022/09/03 00:52:23;;;;;;;7.45;0.57;;;19.70;91.30;;;;;;4990799;28;20054;-70
2022/09/03 00:55:05;;;;;;;0.00;0.00;;;19.40;91.80;;;;;;4996422;28;20061;-70
2022/09/03 00:57:37;;;;;;;0.00;0.00;;;19.40;91.50;;;;;;4999632;28;20057;-70
2022/09/03 01:00:06;;;;;;;0.20;0.20;;;19.40;91.30;;;;;;4995913;28;20073;-70
2022/09/03 01:02:50;;;;;;;0.00;0.00;;;19.40;91.70;;;;;;4997911;28;20054;-70
2022/09/03 01:05:38;;;;;;;0.70;0.30;;;19.30;91.70;;;;;;4992503;28;20498;-70
2022/09/03 01:08:07;;;;;;;0.00;0.00;;;19.30;91.60;;;;;;5009403;28;20568;-70
2022/09/03 01:10:49;;;;;;;0.10;0.10;;;19.30;92.10;;;;;;5003812;28;20050;-70
2022/09/03 01:13:37;;;;;;;0.05;0.05;;;19.40;91.50;;;;;;4997061;28;20326;-70
2022/09/03 01:16:38;;;;;;;0.00;0.00;;;19.30;91.60;;;;;;5009824;28;20049;-70
2022/09/03 01:19:24;;;;;;;0.00;0.00;;;19.30;91.70;;;;;;4997740;28;20062;-70
2022/09/03 01:22:09;;;;;;;0.00;0.00;;;19.20;92.00;;;;;;5006638;28;20046;-70
2022/09/03 01:25:08;;;;;;;0.00;0.00;;;19.20;92.40;;;;;;5002181;28;20050;-71
2022/09/03 01:28:09;;;;;;;0.05;0.05;;;19.10;91.90;;;;;;5003179;28;20058;-70
2022/09/03 01:30:46;;;;;;;0.00;0.00;;;19.10;92.10;;;;;;4994617;28;20459;-71
2022/09/03 01:33:38;;;;;;;0.13;0.13;;;19.10;92.20;;;;;;5000378;28;20386;-70
2022/09/03 01:36:31;;;;;;;0.00;0.00;;;19.00;91.80;;;;;;4998700;28;20066;-70
2022/09/03 01:39:02;;;;;;;0.10;0.10;;;19.00;91.70;;;;;;4993152;28;20065;-70
2022/09/03 01:42:15;;;;;;;0.00;0.00;;;19.00;91.70;;;;;;5019565;28;20049;-71
2022/09/03 01:45:11;;;;;;;0.00;0.00;;;19.10;91.90;;;;;;4993299;28;20057;-70
2022/09/03 01:48:09;;;;;;;0.10;0.10;;;19.00;92.50;;;;;;5004447;28;20062;-70
2022/09/03 01:50:37;;;;;;;0.15;0.10;;;19.00;92.00;;;;;;5009809;28;20100;-70
2022/09/03 01:53:26;;;;;;;0.00;0.00;;;18.90;91.90;;;;;;5005067;28;20132;-70
2022/09/03 01:56:12;;;;;;;0.00;0.00;;;18.90;92.00;;;;;;4998650;28;20050;-70
2022/09/03 01:59:02;;;;;;;0.10;0.10;;;18.80;92.50;;;;;;5008093;28;20806;-70
2022/09/03 02:01:45;;;;;;;0.15;0.15;;;18.90;92.20;;;;;;4996912;28;20050;-70
2022/09/03 02:04:24;;;;;;;0.10;0.10;;;18.80;92.60;;;;;;5009309;28;20087;-70
2022/09/03 02:06:51;;;;;;;0.00;0.00;;;18.80;92.00;;;;;;4988624;28;20077;-70
2022/09/03 02:09:17;;;;;;;0.10;0.10;;;18.80;92.60;;;;;;5008202;28;20604;-70
2022/09/03 02:11:50;;;;;;;0.10;0.10;;;18.80;92.10;;;;;;5008703;28;20041;-70
2022/09/03 02:14:16;;;;;;;0.00;0.00;;;18.80;92.30;;;;;;5004794;28;20072;-70
2022/09/03 02:16:43;;;;;;;1.17;0.50;;;18.80;92.50;;;;;;5004337;28;20045;-70
2022/09/03 02:19:15;;;;;;;0.00;0.00;;;18.80;92.30;;;;;;4990720;28;20052;-70
2022/09/03 02:21:51;;;;;;;0.00;0.00;;;18.80;92.40;;;;;;5006603;28;20066;-71
2022/09/03 02:24:17;;;;;;;0.00;0.00;;;18.80;92.60;;;;;;4999264;28;20518;-71
2022/09/03 02:26:43;;;;;;;0.00;0.00;;;18.70;92.10;;;;;;5003114;28;20490;-71
2022/09/03 02:29:10;;;;;;;0.00;0.00;;;18.60;93.30;;;;;;5006280;28;20060;-71
2022/09/03 02:31:35;;;;;;;0.00;0.00;;;18.60;92.30;;;;;;5005628;28;20042;-71
2022/09/03 02:34:02;;;;;;;0.00;0.00;;;18.60;92.80;;;;;;4991993;28;20050;-71
2022/09/03 02:36:31;;;;;;;0.10;0.10;;;18.60;92.40;;;;;;5000883;28;20542;-70
2022/09/03 02:38:56;;;;;;;0.10;0.10;;;18.50;92.40;;;;;;4995794;28;20050;-70
2022/09/03 02:41:22;;;;;;;0.00;0.00;;;18.50;92.30;;;;;;5008221;28;20038;-71
2022/09/03 02:44:11;;;;;;;0.10;0.10;;;18.50;92.50;;;;;;5003797;28;20117;-71
2022/09/03 02:46:50;;;;;;;0.10;0.10;;;18.50;92.30;;;;;;4997234;28;20046;-71
2022/09/03 02:49:16;;;;;;;0.00;0.00;;;18.50;92.60;;;;;;5008895;28;20042;-73
2022/09/03 02:51:43;;;;;;;0.00;0.00;;;18.50;92.60;;;;;;5003233;28;20445;-71
2022/09/03 02:54:10;;;;;;;0.00;0.00;;;18.40;92.40;;;;;;5000222;28;20458;-71
2022/09/03 02:56:36;;;;;;;0.05;0.05;;;18.50;92.70;;;;;;5006581;28;20089;-71
2022/09/03 02:59:04;;;;;;;0.10;0.10;;;18.50;92.80;;;;;;4993978;28;20089;-71
2022/09/03 03:01:29;;;;;;;0.10;0.10;;;18.50;92.60;;;;;;4994573;28;20047;-72
2022/09/03 03:03:55;;;;;;;0.00;0.00;;;18.40;92.40;;;;;;5002516;28;20038;-71
2022/09/03 03:06:20;;;;;;;0.03;0.03;;;18.40;92.70;;;;;;4995956;28;20045;-70
2022/09/03 03:08:48;;;;;;;0.00;0.00;;;18.40;92.70;;;;;;5020613;28;20461;-70
2022/09/03 03:11:17;;;;;;;0.13;0.13;;;18.40;93.10;;;;;;5010422;28;20092;-70
2022/09/03 03:13:43;;;;;;;0.10;0.10;;;18.40;92.90;;;;;;4999683;28;20057;-70
2022/09/03 03:16:09;;;;;;;1.08;0.75;;;18.30;93.00;;;;;;5004250;28;20398;-70
2022/09/03 03:18:35;;;;;;;0.00;0.00;;;18.30;92.80;;;;;;5013022;28;20445;-70
2022/09/03 03:21:09;;;;;;;0.00;0.00;;;18.20;92.70;;;;;;5001145;28;20046;-70
2022/09/03 03:23:36;;;;;;;0.00;0.00;;;18.20;92.70;;;;;;5001033;28;20474;-70
2022/09/03 03:26:04;;;;;;;0.00;0.00;;;18.20;93.10;;;;;;5010702;28;20088;-70
2022/09/03 03:28:33;;;;;;;0.00;0.00;;;18.20;93.00;;;;;;5003924;28;20034;-70
2022/09/03 03:31:19;;;;;;;0.03;0.03;;;18.10;93.80;;;;;;4995679;28;20458;-70
2022/09/03 03:33:51;;;;;;;0.00;0.00;;;18.00;93.10;;;;;;4998715;28;20054;-70
2022/09/03 03:36:16;;;;;;;0.05;0.05;;;18.10;93.30;;;;;;5005307;28;20038;-70
2022/09/03 03:38:44;;;;;;;0.10;0.10;;;18.10;93.80;;;;;;4999576;28;20441;-70
2022/09/03 03:41:16;;;;;;;0.08;0.08;;;18.10;93.00;;;;;;4997938;28;20050;-69
2022/09/03 03:43:42;;;;;;;0.00;0.00;;;18.20;93.10;;;;;;5005491;28;20054;-71
2022/09/03 03:46:09;;;;;;;0.00;0.00;;;18.10;93.00;;;;;;5009961;28;20069;-71
2022/09/03 03:48:35;;;;;;;0.05;0.05;;;18.10;92.90;;;;;;5004271;28;20120;-71
2022/09/03 03:51:03;;;;;;;4.75;1.85;;;18.10;92.80;;;;;;5000119;28;20551;-71
2022/09/03 03:53:30;;;;;;;0.00;0.00;;;18.10;93.00;;;;;;5002025;28;20047;-71
2022/09/03 03:55:58;;;;;;;0.15;0.15;;;18.00;93.50;;;;;;5002916;28;20046;-72
2022/09/03 03:58:24;;;;;;;0.00;0.00;;;18.10;93.50;;;;;;4999769;28;20049;-71
2022/09/03 04:00:53;;;;;;;0.10;0.10;;;18.00;93.40;;;;;;5003697;28;20047;-72
2022/09/03 04:03:19;;;;;;;0.08;0.08;;;18.00;93.90;;;;;;5002051;28;20045;-71
2022/09/03 04:05:58;;;;;;;0.05;0.05;;;18.10;93.00;;;;;;5005178;28;20042;-71
2022/09/03 04:08:24;;;;;;;0.35;0.35;;;18.10;93.10;;;;;;5004947;28;20046;-72
2022/09/03 04:10:50;;;;;;;0.00;0.00;;;18.10;93.50;;;;;;5011382;28;20504;-72
2022/09/03 04:13:16;;;;;;;0.00;0.00;;;18.10;93.20;;;;;;5006625;28;20050;-71
2022/09/03 04:15:42;;;;;;;0.05;0.05;;;18.10;92.90;;;;;;5002080;28;20046;-71
2022/09/03 04:18:07;;;;;;;0.00;0.00;;;18.00;92.90;;;;;;5008584;28;20375;-72
2022/09/03 04:20:35;;;;;;;0.10;0.10;;;18.10;93.00;;;;;;5009911;28;20398;-69
2022/09/03 04:23:01;;;;;;;0.00;0.00;;;18.10;93.40;;;;;;5003316;28;20438;-69
2022/09/03 04:25:26;;;;;;;0.03;0.03;;;18.00;92.90;;;;;;5004768;28;20116;-70
2022/09/03 04:27:52;;;;;;;0.00;0.00;;;18.00;93.30;;;;;;5010975;28;20081;-69
2022/09/03 04:30:18;;;;;;;0.20;0.20;;;18.00;94.20;;;;;;5006612;28;20053;-70
2022/09/03 04:32:53;;;;;;;0.10;0.10;;;18.10;93.70;;;;;;4994098;28;20642;-70
2022/09/03 04:35:24;;;;;;;0.08;0.08;;;18.00;93.80;;;;;;4995283;28;20487;-70
2022/09/03 04:37:50;;;;;;;0.00;0.00;;;18.00;93.20;;;;;;5003500;28;20096;-70
2022/09/03 04:40:16;;;;;;;0.10;0.10;;;18.00;93.90;;;;;;5002882;28;20053;-69
2022/09/03 04:42:41;;;;;;;0.10;0.10;;;18.00;93.50;;;;;;4996599;28;20046;-70
2022/09/03 04:45:08;;;;;;;0.00;0.00;;;18.00;93.50;;;;;;5000831;28;20152;-70
2022/09/03 04:47:35;;;;;;;0.00;0.00;;;18.00;93.50;;;;;;4999567;28;20065;-70
2022/09/03 04:50:02;;;;;;;2.35;1.17;;;18.00;93.50;;;;;;5009616;28;20050;-70
2022/09/03 04:52:31;;;;;;;0.00;0.00;;;17.90;93.30;;;;;;4995378;28;20049;-70
2022/09/03 04:54:57;;;;;;;0.00;0.00;;;17.90;93.80;;;;;;4993003;28;20046;-69
2022/09/03 04:57:23;;;;;;;2.75;1.25;;;17.80;93.40;;;;;;4993216;28;20513;-70
2022/09/03 04:59:49;;;;;;;0.10;0.10;;;17.80;93.70;;;;;;4992000;28;20043;-70
2022/09/03 05:02:14;;;;;;;0.10;0.10;;;17.80;93.80;;;;;;5000657;28;20494;-70
2022/09/03 05:04:41;;;;;;;0.00;0.00;;;17.80;93.50;;;;;;4995079;28;20390;-70
2022/09/03 05:07:07;;;;;;;0.00;0.00;;;17.80;93.60;;;;;;5010575;28;20038;-70
2022/09/03 05:09:32;;;;;;;0.00;0.00;;;17.70;93.70;;;;;;5003667;28;20045;-70
2022/09/03 05:11:58;;;;;;;0.08;0.08;;;17.70;93.90;;;;;;4991828;28;20121;-71
2022/09/03 05:14:23;;;;;;;0.00;0.00;;;17.80;94.00;;;;;;4996868;28;20038;-71
2022/09/03 05:16:49;;;;;;;0.10;0.10;;;17.80;94.00;;;;;;4990564;28;20454;-71
2022/09/03 05:19:15;;;;;;;0.05;0.05;;;17.80;93.50;;;;;;5007484;28;20048;-71
2022/09/03 05:21:41;;;;;;;0.08;0.08;;;17.80;94.10;;;;;;5003333;28;20521;-71
2022/09/03 05:24:07;;;;;;;0.43;0.43;;;17.80;94.50;;;;;;4991717;28;20400;-71
2022/09/03 05:26:37;;;;;;;0.00;0.00;;;17.80;94.10;;;;;;5006336;28;20038;-71
2022/09/03 05:29:08;;;;;;;0.10;0.10;;;17.80;93.60;;;;;;5008647;28;20077;-71
2022/09/03 05:31:37;;;;;;;0.00;0.00;;;17.80;94.40;;;;;;5003458;28;20033;-71
2022/09/03 05:34:04;;;;;;;0.00;0.00;;;17.70;93.70;;;;;;4991361;28;20093;-71
2022/09/03 05:36:33;;;;;;;0.00;0.00;;;17.70;93.80;;;;;;5005135;28;20045;-71
2022/09/03 05:38:59;;;;;;;0.00;0.00;;;17.60;94.40;;;;;;4993962;28;20497;-71
2022/09/03 05:41:26;;;;;;;0.00;0.00;;;17.80;93.80;;;;;;5006160;28;20050;-71
2022/09/03 05:43:57;;;;;;;0.03;0.03;;;17.70;94.30;;;;;;4997002;28;20104;-71
2022/09/03 05:46:30;;;;;;;0.10;0.10;;;17.60;94.60;;;;;;4992467;28;20152;-71
2022/09/03 05:49:05;;;;;;;0.00;0.00;;;17.60;94.50;;;;;;4998517;28;20046;-71
2022/09/03 05:51:33;;;;;;;0.08;0.08;;;17.60;94.00;;;;;;5006093;28;20049;-71
2022/09/03 05:53:59;;;;;;;0.10;0.10;;;17.70;94.50;;;;;;5000693;28;20126;-71
2022/09/03 05:56:27;;;;;;;0.00;0.00;;;17.70;94.30;;;;;;4995972;28;20047;-71
2022/09/03 05:58:55;;;;;;;0.00;0.00;;;17.70;94.50;;;;;;4998141;28;20058;-71
2022/09/03 06:01:30;;;;;;;0.10;0.10;;;17.70;94.20;;;;;;5002477;28;20054;-71
2022/09/03 06:03:57;;;;;;;0.10;0.10;;;17.80;94.30;;;;;;5008019;28;20045;-71
2022/09/03 06:06:24;;;;;;;0.10;0.10;;;17.60;94.50;;;;;;4996404;28;20561;-71
2022/09/03 06:08:51;;;;;;;0.00;0.00;;;17.60;95.00;;;;;;5000637;28;20042;-71
2022/09/03 06:11:16;;;;;;;0.00;0.00;;;17.70;95.40;;;;;;5001981;28;20038;-71
2022/09/03 06:13:42;;;;;;;0.10;0.10;;;17.70;94.80;;;;;;5001873;28;20049;-71
2022/09/03 06:16:08;;;;;;;0.20;0.20;;;17.60;95.50;;;;;;5009600;28;20087;-71
2022/09/03 06:18:33;;;;;;;0.00;0.00;;;17.50;94.40;;;;;;5008141;28;20096;-71
2022/09/03 06:21:05;;;;;;;0.10;0.10;;;17.50;95.20;;;;;;4998901;28;20050;-71
2022/09/03 06:23:32;;;;;;;0.10;0.10;;;17.50;94.80;;;;;;4998437;28;20076;-72
2022/09/03 06:26:09;;;;;;;0.00;0.00;;;17.40;94.60;;;;;;5005497;28;20104;-71
2022/09/03 06:28:37;;;;;;;0.00;0.00;;;17.50;95.10;;;;;;5006371;28;20577;-71
2022/09/03 06:31:05;;;;;;;0.10;0.10;;;17.40;95.10;;;;;;4990371;28;20549;-71
2022/09/03 06:33:33;;;;;;;0.03;0.03;;;17.50;94.80;;;;;;5002257;28;20513;-71
2022/09/03 06:36:00;;;;;;;0.05;0.05;;;17.50;95.30;;;;;;5009191;28;20061;-72
2022/09/03 06:38:28;;;;;;;0.08;0.08;;;17.60;95.20;;;;;;5005773;28;20077;-72
2022/09/03 06:40:55;;;;;;;0.10;0.10;;;17.60;95.10;;;;;;4997169;28;20397;-71
2022/09/03 06:43:22;;;;;;;0.00;0.00;;;17.60;95.30;;;;;;5001966;28;20371;-71
2022/09/03 06:45:59;;;;;;;0.10;0.10;;;17.70;95.30;;;;;;4995675;28;20046;-72
2022/09/03 06:48:26;;;;;;;0.10;0.10;;;17.70;95.10;;;;;;4998049;28;20045;-72
2022/09/03 06:51:04;;;;;;;0.03;0.03;;;17.80;95.30;;;;;;4998688;28;20042;-72
2022/09/03 06:53:33;;;;;;;0.30;0.30;;;17.90;95.70;;;;;;5006537;28;20501;-72
2022/09/03 06:56:01;;;;;;;0.00;0.00;;;17.90;95.80;;;;;;4999094;28;20082;-72
2022/09/03 06:58:31;;;;;;;0.10;0.10;;;18.00;95.00;;;;;;4989701;28;20051;-72
2022/09/03 07:01:06;;;;;;;1.23;0.85;;;18.00;95.60;;;;;;4989985;28;20488;-71
2022/09/03 07:03:32;;;;;;;0.00;0.00;;;18.10;95.20;;;;;;4992740;28;20046;-71
2022/09/03 07:06:03;;;;;;;0.20;0.20;;;18.10;95.00;;;;;;5003371;28;20108;-72
2022/09/03 07:08:30;;;;;;;0.00;0.00;;;18.10;95.70;;;;;;5003650;28;20148;-71
2022/09/03 07:10:56;;;;;;;0.03;0.03;;;18.20;95.10;;;;;;5002670;28;20463;-71
2022/09/03 07:13:21;;;;;;;0.20;0.20;;;18.30;95.50;;;;;;5004655;28;20050;-71
2022/09/03 07:15:47;;;;;;;0.03;0.03;;;18.30;94.80;;;;;;4999245;28;20034;-71
2022/09/03 07:18:13;;;;;;;0.00;0.00;;;18.20;95.30;;;;;;5007788;28;20049;-71
2022/09/03 07:20:38;;;;;;;0.00;0.00;;;18.30;95.00;;;;;;5008438;28;20041;-72
2022/09/03 07:23:04;;;;;;;0.08;0.08;;;18.30;94.90;;;;;;5002912;28;20060;-71
2022/09/03 07:25:30;;;;;;;0.10;0.10;;;18.40;95.20;;;;;;5005752;28;20494;-71
2022/09/03 07:27:57;;;;;;;0.10;0.10;;;18.40;94.30;;;;;;5008639;28;20041;-71
2022/09/03 07:30:24;;;;;;;0.10;0.10;;;18.50;94.70;;;;;;5002802;28;20498;-71
2022/09/03 07:32:50;;;;;;;0.00;0.00;;;18.50;94.70;;;;;;5001556;28;20046;-72
2022/09/03 07:35:17;;;;;;;0.10;0.10;;;18.60;95.30;;;;;;5005468;28;20402;-72
2022/09/03 07:37:43;;;;;;;0.10;0.10;;;18.60;95.30;;;;;;4991535;28;20082;-71
2022/09/03 07:40:09;;;;;;;0.03;0.03;;;18.60;94.80;;;;;;4995667;28;20085;-72
2022/09/03 07:42:37;;;;;;;0.00;0.00;;;18.70;94.50;;;;;;5006255;28;20129;-71
2022/09/03 07:45:11;;;;;;;0.00;0.00;;;18.70;94.50;;;;;;5007505;28;20050;-72
2022/09/03 07:47:37;;;;;;;0.03;0.03;;;18.70;95.10;;;;;;5010867;28;20053;-72
2022/09/03 07:50:05;;;;;;;0.00;0.00;;;18.80;95.00;;;;;;5012973;28;20053;-72
2022/09/03 07:52:31;;;;;;;0.52;0.28;;;18.90;94.90;;;;;;5010698;28;20042;-72
2022/09/03 07:54:58;;;;;;;0.00;0.00;;;18.90;94.20;;;;;;5013049;28;20054;-71
2022/09/03 07:57:23;;;;;;;0.10;0.10;;;18.90;94.30;;;;;;5012501;28;20501;-72
2022/09/03 07:59:49;;;;;;;0.57;0.40;;;19.00;94.60;;;;;;4996178;28;20057;-72
2022/09/03 08:02:15;;;;;;;0.10;0.10;;;19.00;94.20;;;;;;5007738;28;20075;-71
2022/09/03 08:04:40;;;;;;;0.00;0.00;;;19.10;94.50;;;;;;5009145;28;20054;-71
2022/09/03 08:07:07;;;;;;;0.00;0.00;;;19.20;95.00;;;;;;4996689;28;20397;-71
2022/09/03 08:09:32;;;;;;;0.00;0.00;;;19.20;94.70;;;;;;4993316;28;20133;-71
2022/09/03 08:11:58;;;;;;;0.10;0.10;;;19.20;93.80;;;;;;4993176;28;20053;-72
2022/09/03 08:14:24;;;;;;;0.10;0.10;;;19.30;94.80;;;;;;5005411;28;20290;-71
2022/09/03 08:16:49;;;;;;;0.05;0.05;;;19.30;94.20;;;;;;4996581;28;20483;-71
2022/09/03 08:19:17;;;;;;;0.10;0.10;;;19.40;94.30;;;;;;5009879;28;20128;-71
2022/09/03 08:21:43;;;;;;;0.20;0.20;;;19.40;94.30;;;;;;5009567;28;20133;-71
2022/09/03 08:24:10;;;;;;;0.00;0.00;;;19.50;94.20;;;;;;5008765;28;20117;-71
2022/09/03 08:26:39;;;;;;;0.00;0.00;;;19.50;94.40;;;;;;4992040;28;20593;-71
2022/09/03 08:29:05;;;;;;;0.10;0.10;;;19.60;93.90;;;;;;4992952;28;20102;-72
2022/09/03 08:31:32;;;;;;;0.10;0.10;;;19.60;94.10;;;;;;5009779;28;20562;-72
2022/09/03 08:34:05;;;;;;;0.00;0.00;;;19.70;94.30;;;;;;5010049;28;20057;-72
2022/09/03 08:36:33;;;;;;;0.00;0.00;;;19.80;94.30;;;;;;5011146;28;20137;-72
2022/09/03 08:39:06;;;;;;;0.00;0.00;;;19.80;94.10;;;;;;4998366;28;20118;-71
2022/09/03 08:41:55;;;;;;;0.10;0.10;;;19.90;94.10;;;;;;4997019;28;20104;-72
2022/09/03 08:44:39;;;;;;;0.00;0.00;;;19.90;94.30;;;;;;4997388;28;20046;-72
2022/09/03 08:47:14;;;;;;;0.00;0.00;;;19.90;93.70;;;;;;5006035;28;20137;-71
2022/09/03 08:49:57;;;;;;;0.10;0.10;;;20.00;94.30;;;;;;4994273;28;20050;-72
2022/09/03 08:52:41;;;;;;;0.10;0.10;;;20.10;94.20;;;;;;4994984;28;20050;-72
2022/09/03 08:55:26;;;;;;;0.00;0.00;;;20.20;93.90;;;;;;4991731;28;20202;-71
2022/09/03 08:58:06;;;;;;;0.20;0.20;;;20.30;93.80;;;;;;4990901;28;20053;-72
2022/09/03 09:01:02;;;;;;;0.00;0.00;;;20.50;93.70;;;;;;5004578;28;20145;-72
2022/09/03 09:03:51;;;;;;;0.20;0.15;;;21.30;92.90;;;;;;5010942;28;20050;-72
2022/09/03 09:06:29;;;;;;;0.15;0.15;;;22.20;92.70;;;;;;5002113;28;20054;-71
2022/09/03 09:09:16;;;;;;;0.15;0.13;;;23.10;92.60;;;;;;4989090;28;20073;-72
2022/09/03 09:11:53;;;;;;;0.10;0.10;;;23.80;91.70;;;;;;4994871;28;20517;-72
2022/09/03 09:14:26;;;;;;;0.00;0.00;;;24.20;90.90;;;;;;5011629;28;20056;-71
2022/09/03 09:17:39;;;;;;;0.00;0.00;;;24.50;90.70;;;;;;4998098;28;20053;-71
2022/09/03 09:20:28;;;;;;;0.00;0.00;;;25.10;90.00;;;;;;4969883;28;20054;-70
2022/09/03 09:23:05;;;;;;;0.98;0.22;;;25.80;90.00;;;;;;4996093;28;20078;-70
2022/09/03 09:25:34;;;;;;;0.00;0.00;;;25.60;87.70;;;;;;5009367;28;20050;-70
2022/09/03 09:28:03;;;;;;;0.00;0.00;;;26.00;89.60;;;;;;5005710;28;20398;-71
2022/09/03 09:30:30;;;;;;;0.03;0.03;;;26.10;88.20;;;;;;5005071;28;20042;-71
2022/09/03 09:32:56;;;;;;;0.00;0.00;;;26.30;87.40;;;;;;5011013;28;20171;-71
2022/09/03 09:35:22;;;;;;;0.10;0.10;;;26.30;87.80;;;;;;4996565;28;20473;-71
2022/09/03 09:37:59;;;;;;;0.08;0.08;;;26.20;87.10;;;;;;4997099;28;20165;-71
2022/09/03 09:40:37;;;;;;;0.00;0.00;;;26.10;86.00;;;;;;4994837;28;20395;-71
2022/09/03 09:43:09;;;;;;;0.40;0.25;;;26.10;86.90;;;;;;4989956;28;20046;-71
2022/09/03 09:45:36;;;;;;;0.00;0.00;;;26.30;86.10;;;;;;4994006;28;20549;-70
2022/09/03 09:48:09;;;;;;;0.30;0.30;;;26.50;86.70;;;;;;5003043;28;20052;-72
2022/09/03 09:50:34;;;;;;;0.40;0.30;;;26.60;87.70;;;;;;5009168;28;20052;-72
2022/09/03 09:53:13;;;;;;;0.00;0.00;;;26.50;85.70;;;;;;5008231;28;20038;-71
2022/09/03 09:55:56;;;;;;;0.05;0.05;;;26.60;86.20;;;;;;5000176;28;20058;-70
2022/09/03 09:58:26;;;;;;;0.00;0.00;;;26.80;86.70;;;;;;5003593;28;20457;-70
2022/09/03 10:00:57;;;;;;;0.00;0.00;;;26.80;85.60;;;;;;5002364;28;20517;-71
2022/09/03 10:03:23;;;;;;;0.40;0.40;;;27.00;86.60;;;;;;5002312;28;20045;-71
2022/09/03 10:06:52;;;;;;;0.20;0.20;;;26.90;85.30;;;;;;4995828;28;20440;-71
2022/09/03 10:08:47;;;;;;;0.00;0.00;;;27.20;86.30;;;;;;5005951;28;20367;-71
2022/09/03 10:11:13;;;;;;;0.70;0.40;;;27.30;85.20;;;;;;4992012;28;20042;-71
2022/09/03 10:13:47;;;;;;;0.10;0.10;;;27.30;85.10;;;;;;5020760;28;20121;-71
2022/09/03 10:16:30;;;;;;;0.00;0.00;;;27.20;85.00;;;;;;5003179;28;20136;-71
2022/09/03 10:19:17;;;;;;;0.00;0.00;;;27.30;85.80;;;;;;4994986;28;20101;-71
2022/09/03 10:21:47;;;;;;;0.10;0.10;;;27.30;86.80;;;;;;5002366;28;20425;-71
2022/09/03 10:24:38;;;;;;;0.20;0.20;;;27.20;84.50;;;;;;5007032;28;20038;-71
2022/09/03 10:27:10;;;;;;;0.20;0.20;;;26.90;84.40;;;;;;5006817;28;20058;-71
2022/09/03 10:29:36;;;;;;;0.00;0.00;;;26.90;86.50;;;;;;5005807;28;20398;-70
2022/09/03 10:32:22;;;;;;;0.00;0.00;;;26.90;87.00;;;;;;4997291;28;20057;-71
2022/09/03 10:35:28;;;;;;;0.00;0.00;;;26.80;86.10;;;;;;5002784;28;20500;-71
2022/09/03 10:38:18;;;;;;;0.00;0.00;;;26.60;86.90;;;;;;4994704;28;20066;-71
2022/09/03 10:41:10;;;;;;;0.00;0.00;;;26.60;87.50;;;;;;5003052;28;20049;-71
2022/09/03 10:44:17;;;;;;;0.00;0.00;;;26.80;88.80;;;;;;4992160;28;20058;-71
2022/09/03 10:46:59;;;;;;;0.00;0.00;;;26.80;87.60;;;;;;4996915;28;20144;-71
2022/09/03 10:49:57;;;;;;;0.00;0.00;;;26.90;87.10;;;;;;5009194;28;20092;-72
2022/09/03 10:52:46;;;;;;;0.00;0.00;;;26.90;85.90;;;;;;5004221;28;20042;-71
2022/09/03 10:55:17;;;;;;;0.00;0.00;;;27.00;84.70;;;;;;5006412;28;20124;-72
2022/09/03 10:58:10;;;;;;;0.00;0.00;;;26.90;85.10;;;;;;5003848;28;20058;-72
2022/09/03 11:00:44;;;;;;;0.15;0.15;;;27.10;85.70;;;;;;4993723;28;20192;-72
2022/09/03 11:03:19;;;;;;;0.13;0.13;;;27.20;85.50;;;;;;4996818;28;20092;-72
2022/09/03 11:06:02;;;;;;;0.00;0.00;;;27.00;85.10;;;;;;5006293;28;20049;-72
2022/09/03 11:08:31;;;;;;;0.00;0.00;;;27.10;85.90;;;;;;4995060;28;20042;-72
2022/09/03 11:11:25;;;;;;;0.10;0.10;;;27.40;86.30;;;;;;4996514;28;20050;-71
2022/09/03 11:14:03;;;;;;;0.00;0.00;;;27.40;85.30;;;;;;4993139;28;20065;-72
2022/09/03 11:16:42;;;;;;;0.00;0.00;;;27.50;84.60;;;;;;5003018;28;20096;-72
2022/09/03 11:19:16;;;;;;;0.00;0.00;;;27.60;86.60;;;;;;5000746;28;20465;-73
2022/09/03 11:21:42;;;;;;;0.00;0.00;;;27.70;85.00;;;;;;4998360;28;20394;-72
2022/09/03 11:24:23;;;;;;;0.00;0.00;;;27.80;85.00;;;;;;5008695;28;20042;-72
2022/09/03 11:27:16;;;;;;;0.00;0.00;;;27.90;84.70;;;;;;5002520;28;20042;-72
2022/09/03 11:30:02;;;;;;;0.00;0.00;;;28.00;83.80;;;;;;5006154;28;20042;-72
2022/09/03 11:33:07;;;;;;;0.00;0.00;;;28.10;85.40;;;;;;4998439;28;20050;-72
2022/09/03 11:35:33;;;;;;;0.00;0.00;;;28.10;81.50;;;;;;5003590;28;20057;-72
2022/09/03 11:38:04;;;;;;;0.20;0.20;;;28.30;83.10;;;;;;5009071;28;20042;-72
2022/09/03 11:40:38;;;;;;;0.00;0.00;;;28.50;81.30;;;;;;5007071;28;20042;-72
2022/09/03 11:43:28;;;;;;;0.08;0.08;;;28.40;83.10;;;;;;5006574;28;20482;-72
2022/09/03 11:46:04;;;;;;;0.00;0.00;;;28.60;81.90;;;;;;5001967;28;20079;-72
2022/09/03 11:48:42;;;;;;;0.17;0.17;;;28.60;80.70;;;;;;5011755;28;20073;-72
2022/09/03 11:51:18;;;;;;;0.00;0.00;;;28.80;82.80;;;;;;4999898;28;20414;-71
2022/09/03 11:53:55;;;;;;;0.00;0.00;;;29.00;81.00;;;;;;5009553;28;20052;-71
2022/09/03 11:56:21;;;;;;;0.00;0.00;;;29.00;80.90;;;;;;4998445;28;20383;-71
2022/09/03 11:59:13;;;;;;;0.08;0.08;;;29.00;81.40;;;;;;4996446;28;20069;-71
2022/09/03 12:01:45;;;;;;;0.00;0.00;;;29.20;79.10;;;;;;5006007;28;20524;-72
2022/09/03 12:04:14;;;;;;;0.00;0.00;;;29.40;79.50;;;;;;5012441;28;20089;-72
2022/09/03 12:06:40;;;;;;;0.00;0.00;;;29.50;81.20;;;;;;4994658;28;20125;-72
2022/09/03 12:09:27;;;;;;;0.00;0.00;;;29.40;78.60;;;;;;5001040;28;20124;-72
2022/09/03 12:12:17;;;;;;;0.00;0.00;;;29.40;77.40;;;;;;5010969;28;20461;-72
2022/09/03 12:15:13;;;;;;;0.10;0.10;;;29.70;80.10;;;;;;4999701;28;20298;-72
2022/09/03 12:18:17;;;;;;;0.00;0.00;;;29.90;79.60;;;;;;4995562;28;20553;-72
2022/09/03 12:20:36;;;;;;;0.00;0.00;;;30.00;79.70;;;;;;4993223;28;20050;-71
2022/09/03 12:23:02;;;;;;;0.00;0.00;;;30.30;79.30;;;;;;5000806;28;20461;-72
2022/09/03 12:25:28;;;;;;;0.00;0.00;;;30.30;78.70;;;;;;5007475;28;20042;-72
2022/09/03 12:27:53;;;;;;;0.00;0.00;;;30.20;79.20;;;;;;5001810;28;20100;-72
2022/09/03 12:30:23;;;;;;;0.00;0.00;;;30.30;77.60;;;;;;5008778;28;20492;-72
2022/09/03 12:32:50;;;;;;;0.20;0.20;;;30.60;77.40;;;;;;5006650;28;20050;-73
2022/09/03 12:35:22;;;;;;;0.00;0.00;;;30.50;76.80;;;;;;5003489;28;20513;-72
2022/09/03 12:37:50;;;;;;;0.00;0.00;;;30.80;75.30;;;;;;5002996;28;20041;-73
2022/09/03 12:40:22;;;;;;;0.55;0.38;;;30.70;77.10;;;;;;5009026;28;20134;-72
2022/09/03 12:42:48;;;;;;;0.00;0.00;;;30.80;75.50;;;;;;5011954;28;20053;-72
2022/09/03 12:45:17;;;;;;;0.00;0.00;;;30.60;75.30;;;;;;4996594;28;20053;-73
2022/09/03 12:47:43;;;;;;;0.03;0.03;;;30.90;76.20;;;;;;4998909;28;20494;-73
2022/09/03 12:50:15;;;;;;;0.22;0.22;;;30.90;77.10;;;;;;5002536;28;20065;-73
2022/09/03 12:52:51;;;;;;;0.00;0.00;;;30.90;75.00;;;;;;5010637;28;20064;-72
2022/09/03 12:55:39;;;;;;;0.22;0.22;;;30.80;76.80;;;;;;5003042;28;20344;-73
2022/09/03 12:58:07;;;;;;;0.00;0.00;;;31.30;73.70;;;;;;5008071;28;20050;-72
2022/09/03 13:00:38;;;;;;;0.00;0.00;;;31.10;74.90;;;;;;5009211;28;20054;-73
2022/09/03 13:03:09;;;;;;;0.05;0.05;;;31.10;73.80;;;;;;5004470;28;20050;-73
2022/09/03 13:05:44;;;;;;;0.00;0.00;;;31.40;74.70;;;;;;4997970;28;20510;-73
2022/09/03 13:08:16;;;;;;;0.10;0.00;;;31.40;74.70;;;;;;4995816;28;20038;-73
2022/09/03 13:10:43;;;;;;;0.00;0.00;;;31.40;75.70;;;;;;5005667;28;20046;-73
2022/09/03 13:13:23;;;;;;;0.75;0.52;;;31.50;75.20;;;;;;5006912;28;20050;-73
2022/09/03 13:16:07;;;;;;;0.00;0.00;;;31.40;74.90;;;;;;4994846;28;20411;-73
2022/09/03 13:18:52;;;;;;;0.10;0.10;;;31.60;76.20;;;;;;4993812;28;20490;-73
2022/09/03 13:22:04;;;;;;;0.00;0.00;;;31.50;72.40;;;;;;5007812;28;20125;-74